Strona główna
METAR-TAF:

METAR-TAF

Lotnisko :

Harrisburg, Pensylwania, Stany Zjednoczone

Szerokość geograficzna: 40-13-02N, Długość geograficzna: 076-51-05W, wysokość: 106 m

Aktualna obserwacja pogody

Raport powstał 7 minut temu, godzina 08:56 UTC
Cisza
Temperatura 21°C
Wilgotność 83%
Ciśnienie 1019 hPa
Widzialność: 16.1 km
Mało chmury na wysokości 1300 ft
Zachmurzenie całkowite na wysokości 2100 ft

METAR: KCXY 200856Z AUTO 00000KT 10SM FEW013 OVC021 21/18 A3010 RMK AO2 SLP193 T02060178 51005

czas: 05:03 (09:03 UTC)


TAF: brakujący

Obserwacja i prognoza pogody dla ponad 4000 lotnisk (raport METAR i TAF).

Dostępne stacje oznaczono żółtymi i czerwonymi punktami na mapie.

Najedź kursorem aby zobaczyć nazwę stacji.

Kliknij aby zobaczyć obserwacje i prognozy pogody.

Aby zmienić mapę: kliknij na zielony przycisk z czarnym krzyżykiem, aby powiększyć; na zielony przycisk z myślnikiem, aby pomniejszyć; na zielone strzałki, aby przejść do map sąsiednich.


METAR-TAF: